Sault Ste. Marie, MI

6:53 AM EDT on August 31, 2015 (GMT -0400)
Sault Ste Marie Municipal / Sanderson Field | | Change Station
CLOSE
Current Station
Airport
Location: Sault Ste Marie,
Elevation: 715 ft
Nearby Weather Stations

Elev 715 ft 46.48 °N, 84.36 °W | Updated 58 minutes ago

Overcast
Overcast
66 °F
Feels Like 66 °F
N
0
Wind Variable Wind from North

Today
High -- | Low -- °F
--% Chance of Precip.
Yesterday
High -- | Low -- °F
Precip. -- in
6:55 AM 8:18 PM
Waning Gibbous, 96% visible
Pressure 29.94 in
Visibility 7.0 miles
Clouds Overcast 600 ft
Dew Point 63 °F
Humidity 90%
Rainfall 0.00 in
Snow Depth Not available.
UV 0 out of 12
Pollen 10.10 out of 12
Air Quality Not available.
Flu Activity Not available.
METAR KANJ 310955Z AUTO 00000KT 7SM OVC006 19/17 A2995 RMK AO2 SLP139 T01890172
Pressure 29.94 in
Visibility 7.0 miles
Clouds Overcast 600 ft
Dew Point 63 °F
Humidity 90%
Rainfall 0.00 in
Snow Depth Not available.
UV 0 out of 12
Pollen 10.10 out of 12
Air Quality Not available.
Flu Activity Not available.
METAR KANJ 310955Z AUTO 00000KT 7SM OVC006 19/17 A2995 RMK AO2 SLP139 T01890172
Nowcast | as of 6:00 am EDT on August 31, 2015

At 7 am...partly cloudy. Patchy fog. Temperature 63. Light winds. At 9 am...partly cloudy. Patchy fog. Temperature 64. Light winds. At 11 am...partly cloudy. Temperature 69. Light winds. At 1 PM...mostly clear. Temperature 77. South winds 5 mph.

×

10-Day Weather Forecast

×

Almanac

Astronomy

Aug. 31, 2015 Rise Set
Actual Time
Civil Twilight
Nautical Twilight
Astronomical Twilight
Moon
Length of Visible Light
Length of Day
Tomorrow will be .
, % of the Moon is Illuminated

Today's Extremes

State Highs State Lows

Community

WunderPhotos

Upload Photos

1,851,227 photos uploaded!

WunderBlogs® & News

Nearby

Air Quality

  Air Quality AQ Index Pollutant
Not available.

Snow Depth

Station Depth Elevation

Earthquake Activity

City Distance Mag. Time & Date
Minimum magnitude displayed is 2.5.

Coastal Water Temperatures

Place Temperature

Stations

Nearby Weather Stations

Station Location Temp. Windchill Dew Point Humidity Wind Precip. Elev Updated Type